sensor_id;sensor_type;location;lat;lon;timestamp;P1;durP1;ratioP1;P2;durP2;ratioP2
44434;SDS011;30138;20.964;105.830;2023-08-12T00:02:52;43.35;;;32.30;;
44434;SDS011;30138;20.964;105.830;2023-08-12T00:08:00;44.85;;;32.33;;
44434;SDS011;30138;20.964;105.830;2023-08-12T00:13:07;41.75;;;30.85;;
44434;SDS011;30138;20.964;105.830;2023-08-12T00:18:18;44.25;;;31.20;;
44434;SDS011;30138;20.964;105.830;2023-08-12T00:23:28;46.92;;;31.77;;
44434;SDS011;30138;20.964;105.830;2023-08-12T00:28:35;43.05;;;31.75;;
44434;SDS011;30138;20.964;105.830;2023-08-12T00:33:44;43.75;;;32.17;;
44434;SDS011;30138;20.964;105.830;2023-08-12T00:38:51;44.00;;;31.20;;
44434;SDS011;30138;20.964;105.830;2023-08-12T00:43:58;43.67;;;31.20;;
44434;SDS011;30138;20.964;105.830;2023-08-12T00:49:07;44.28;;;30.80;;
44434;SDS011;30138;20.964;105.830;2023-08-12T00:54:14;41.10;;;29.17;;
44434;SDS011;30138;20.964;105.830;2023-08-12T00:59:22;41.35;;;29.08;;
44434;SDS011;30138;20.964;105.830;2023-08-12T01:04:31;42.17;;;28.85;;
44434;SDS011;30138;20.964;105.830;2023-08-12T01:09:40;33.40;;;25.52;;
44434;SDS011;30138;20.964;105.830;2023-08-12T01:14:49;35.97;;;26.75;;
44434;SDS011;30138;20.964;105.830;2023-08-12T01:20:05;41.00;;;27.10;;
44434;SDS011;30138;20.964;105.830;2023-08-12T01:25:16;40.17;;;27.35;;
44434;SDS011;30138;20.964;105.830;2023-08-12T01:30:23;41.58;;;28.65;;
44434;SDS011;30138;20.964;105.830;2023-08-12T01:35:32;42.20;;;30.25;;
44434;SDS011;30138;20.964;105.830;2023-08-12T01:40:45;46.03;;;31.67;;
44434;SDS011;30138;20.964;105.830;2023-08-12T01:45:52;54.90;;;35.72;;
44434;SDS011;30138;20.964;105.830;2023-08-12T01:50:59;55.35;;;34.33;;
44434;SDS011;30138;20.964;105.830;2023-08-12T01:56:07;64.45;;;41.13;;
44434;SDS011;30138;20.964;105.830;2023-08-12T02:01:14;55.65;;;38.15;;
44434;SDS011;30138;20.964;105.830;2023-08-12T02:06:23;60.75;;;38.88;;
44434;SDS011;30138;20.964;105.830;2023-08-12T02:11:31;60.30;;;38.88;;
44434;SDS011;30138;20.964;105.830;2023-08-12T02:16:38;58.72;;;39.38;;
44434;SDS011;30138;20.964;105.830;2023-08-12T02:21:45;65.18;;;41.50;;
44434;SDS011;30138;20.964;105.830;2023-08-12T02:26:54;60.65;;;39.78;;
44434;SDS011;30138;20.964;105.830;2023-08-12T02:32:01;63.55;;;40.30;;
44434;SDS011;30138;20.964;105.830;2023-08-12T02:37:08;69.25;;;41.90;;
44434;SDS011;30138;20.964;105.830;2023-08-12T02:42:17;75.15;;;44.88;;
44434;SDS011;30138;20.964;105.830;2023-08-12T02:47:24;76.13;;;47.13;;
44434;SDS011;30138;20.964;105.830;2023-08-12T02:52:31;73.03;;;47.50;;
44434;SDS011;30138;20.964;105.830;2023-08-12T02:57:40;78.53;;;49.60;;
44434;SDS011;30138;20.964;105.830;2023-08-12T03:02:48;83.82;;;51.42;;
44434;SDS011;30138;20.964;105.830;2023-08-12T03:07:55;90.00;;;54.88;;
44434;SDS011;30138;20.964;105.830;2023-08-12T03:13:05;83.32;;;52.13;;
44434;SDS011;30138;20.964;105.830;2023-08-12T03:18:13;83.18;;;52.47;;
44434;SDS011;30138;20.964;105.830;2023-08-12T03:23:20;88.65;;;55.13;;
44434;SDS011;30138;20.964;105.830;2023-08-12T03:28:29;88.75;;;57.58;;
44434;SDS011;30138;20.964;105.830;2023-08-12T03:33:37;85.90;;;54.78;;
44434;SDS011;30138;20.964;105.830;2023-08-12T03:38:43;93.70;;;56.70;;
44434;SDS011;30138;20.964;105.830;2023-08-12T03:43:57;97.60;;;63.65;;
44434;SDS011;30138;20.964;105.830;2023-08-12T03:49:03;92.53;;;61.10;;
44434;SDS011;30138;20.964;105.830;2023-08-12T03:54:11;92.75;;;59.15;;
44434;SDS011;30138;20.964;105.830;2023-08-12T03:59:21;95.50;;;63.63;;
44434;SDS011;30138;20.964;105.830;2023-08-12T04:04:31;94.55;;;62.22;;
44434;SDS011;30138;20.964;105.830;2023-08-12T04:09:38;97.30;;;64.97;;
44434;SDS011;30138;20.964;105.830;2023-08-12T04:14:47;100.72;;;67.25;;
44434;SDS011;30138;20.964;105.830;2023-08-12T04:19:54;103.30;;;66.68;;
44434;SDS011;30138;20.964;105.830;2023-08-12T04:25:01;112.05;;;71.10;;
44434;SDS011;30138;20.964;105.830;2023-08-12T04:30:12;101.00;;;68.05;;
44434;SDS011;30138;20.964;105.830;2023-08-12T04:35:22;106.75;;;71.43;;
44434;SDS011;30138;20.964;105.830;2023-08-12T04:40:30;105.45;;;70.72;;
44434;SDS011;30138;20.964;105.830;2023-08-12T04:45:39;110.38;;;71.50;;
44434;SDS011;30138;20.964;105.830;2023-08-12T04:50:53;107.97;;;69.25;;
44434;SDS011;30138;20.964;105.830;2023-08-12T04:56:08;112.72;;;72.03;;
44434;SDS011;30138;20.964;105.830;2023-08-12T05:01:16;110.78;;;73.15;;
44434;SDS011;30138;20.964;105.830;2023-08-12T05:06:24;112.78;;;74.13;;
44434;SDS011;30138;20.964;105.830;2023-08-12T05:11:32;111.07;;;75.18;;
44434;SDS011;30138;20.964;105.830;2023-08-12T05:16:41;116.70;;;75.07;;
44434;SDS011;30138;20.964;105.830;2023-08-12T05:21:48;110.60;;;75.18;;
44434;SDS011;30138;20.964;105.830;2023-08-12T05:26:54;112.22;;;75.38;;
44434;SDS011;30138;20.964;105.830;2023-08-12T05:32:04;109.97;;;71.72;;
44434;SDS011;30138;20.964;105.830;2023-08-12T05:37:11;109.30;;;73.95;;
44434;SDS011;30138;20.964;105.830;2023-08-12T05:42:20;106.93;;;72.28;;
44434;SDS011;30138;20.964;105.830;2023-08-12T05:47:33;107.88;;;72.72;;
44434;SDS011;30138;20.964;105.830;2023-08-12T05:52:43;109.18;;;71.45;;
44434;SDS011;30138;20.964;105.830;2023-08-12T05:57:50;104.80;;;68.63;;
44434;SDS011;30138;20.964;105.830;2023-08-12T06:03:02;103.07;;;68.38;;
44434;SDS011;30138;20.964;105.830;2023-08-12T06:08:11;103.95;;;69.25;;
44434;SDS011;30138;20.964;105.830;2023-08-12T06:13:18;98.32;;;68.78;;
44434;SDS011;30138;20.964;105.830;2023-08-12T06:18:27;108.03;;;69.47;;
44434;SDS011;30138;20.964;105.830;2023-08-12T06:23:34;101.90;;;69.95;;
44434;SDS011;30138;20.964;105.830;2023-08-12T06:28:41;98.60;;;68.35;;
44434;SDS011;30138;20.964;105.830;2023-08-12T06:33:50;101.85;;;67.30;;
44434;SDS011;30138;20.964;105.830;2023-08-12T06:38:58;101.63;;;69.10;;
44434;SDS011;30138;20.964;105.830;2023-08-12T06:44:06;96.10;;;68.32;;
44434;SDS011;30138;20.964;105.830;2023-08-12T06:49:15;97.35;;;66.68;;
44434;SDS011;30138;20.964;105.830;2023-08-12T06:54:23;89.97;;;66.22;;
44434;SDS011;30138;20.964;105.830;2023-08-12T06:59:30;104.68;;;68.45;;
44434;SDS011;30138;20.964;105.830;2023-08-12T07:04:39;92.03;;;67.15;;
44434;SDS011;30138;20.964;105.830;2023-08-12T07:09:47;103.07;;;70.20;;
44434;SDS011;30138;20.964;105.830;2023-08-12T07:14:54;96.00;;;65.53;;
44434;SDS011;30138;20.964;105.830;2023-08-12T07:20:02;96.53;;;66.72;;
44434;SDS011;30138;20.964;105.830;2023-08-12T07:25:10;91.13;;;63.58;;
44434;SDS011;30138;20.964;105.830;2023-08-12T07:30:17;88.57;;;60.85;;
44434;SDS011;30138;20.964;105.830;2023-08-12T07:35:25;90.32;;;62.22;;
44434;SDS011;30138;20.964;105.830;2023-08-12T07:40:33;87.70;;;61.80;;
44434;SDS011;30138;20.964;105.830;2023-08-12T07:45:41;93.20;;;61.22;;
44434;SDS011;30138;20.964;105.830;2023-08-12T07:50:54;86.60;;;60.17;;
44434;SDS011;30138;20.964;105.830;2023-08-12T07:56:01;86.95;;;58.75;;
44434;SDS011;30138;20.964;105.830;2023-08-12T08:01:08;81.88;;;59.17;;
44434;SDS011;30138;20.964;105.830;2023-08-12T08:06:17;80.60;;;55.75;;
44434;SDS011;30138;20.964;105.830;2023-08-12T08:11:24;80.60;;;55.45;;
44434;SDS011;30138;20.964;105.830;2023-08-12T08:16:31;76.97;;;54.88;;
44434;SDS011;30138;20.964;105.830;2023-08-12T08:21:40;74.20;;;53.97;;
44434;SDS011;30138;20.964;105.830;2023-08-12T08:26:47;76.05;;;53.15;;
44434;SDS011;30138;20.964;105.830;2023-08-12T08:31:54;72.90;;;52.70;;
44434;SDS011;30138;20.964;105.830;2023-08-12T08:37:04;69.82;;;50.92;;
44434;SDS011;30138;20.964;105.830;2023-08-12T08:42:12;71.80;;;48.50;;
44434;SDS011;30138;20.964;105.830;2023-08-12T08:47:21;63.33;;;45.28;;
44434;SDS011;30138;20.964;105.830;2023-08-12T08:52:33;57.58;;;41.70;;
44434;SDS011;30138;20.964;105.830;2023-08-12T08:57:40;59.55;;;42.30;;
44434;SDS011;30138;20.964;105.830;2023-08-12T09:02:49;56.75;;;39.30;;
44434;SDS011;30138;20.964;105.830;2023-08-12T09:08:00;53.42;;;36.92;;
44434;SDS011;30138;20.964;105.830;2023-08-12T09:13:08;48.00;;;33.47;;
44434;SDS011;30138;20.964;105.830;2023-08-12T09:18:16;40.25;;;29.33;;
44434;SDS011;30138;20.964;105.830;2023-08-12T09:23:28;41.60;;;26.73;;
44434;SDS011;30138;20.964;105.830;2023-08-12T09:28:40;36.78;;;25.80;;
44434;SDS011;30138;20.964;105.830;2023-08-12T09:33:47;33.60;;;24.25;;
44434;SDS011;30138;20.964;105.830;2023-08-12T09:38:57;32.60;;;23.65;;
44434;SDS011;30138;20.964;105.830;2023-08-12T09:44:05;30.57;;;20.77;;
44434;SDS011;30138;20.964;105.830;2023-08-12T09:49:12;25.38;;;18.42;;
44434;SDS011;30138;20.964;105.830;2023-08-12T09:54:21;22.08;;;16.58;;
44434;SDS011;30138;20.964;105.830;2023-08-12T09:59:31;28.70;;;18.17;;
44434;SDS011;30138;20.964;105.830;2023-08-12T10:04:39;21.88;;;16.15;;
44434;SDS011;30138;20.964;105.830;2023-08-12T10:09:52;19.08;;;14.82;;
44434;SDS011;30138;20.964;105.830;2023-08-12T10:15:00;21.45;;;14.15;;
44434;SDS011;30138;20.964;105.830;2023-08-12T10:20:08;17.30;;;13.18;;
44434;SDS011;30138;20.964;105.830;2023-08-12T10:25:21;21.00;;;12.95;;
44434;SDS011;30138;20.964;105.830;2023-08-12T10:30:30;15.60;;;12.90;;
44434;SDS011;30138;20.964;105.830;2023-08-12T10:35:42;18.80;;;11.77;;
44434;SDS011;30138;20.964;105.830;2023-08-12T10:40:52;18.48;;;11.10;;
44434;SDS011;30138;20.964;105.830;2023-08-12T10:46:23;13.48;;;9.88;;
44434;SDS011;30138;20.964;105.830;2023-08-12T10:51:41;16.10;;;9.20;;
44434;SDS011;30138;20.964;105.830;2023-08-12T10:57:07;14.10;;;9.60;;
44434;SDS011;30138;20.964;105.830;2023-08-12T11:02:16;13.70;;;8.68;;
44434;SDS011;30138;20.964;105.830;2023-08-12T11:12:55;16.90;;;9.18;;
44434;SDS011;30138;20.964;105.830;2023-08-12T11:18:02;14.32;;;9.18;;
44434;SDS011;30138;20.964;105.830;2023-08-12T11:23:10;22.00;;;9.10;;
44434;SDS011;30138;20.964;105.830;2023-08-12T11:28:19;15.43;;;8.13;;
44434;SDS011;30138;20.964;105.830;2023-08-12T11:33:27;16.92;;;9.73;;
44434;SDS011;30138;20.964;105.830;2023-08-12T11:38:35;16.23;;;10.85;;
44434;SDS011;30138;20.964;105.830;2023-08-12T11:43:44;22.38;;;10.50;;
44434;SDS011;30138;20.964;105.830;2023-08-12T11:48:52;18.40;;;9.60;;
44434;SDS011;30138;20.964;105.830;2023-08-12T11:53:58;17.63;;;9.65;;
44434;SDS011;30138;20.964;105.830;2023-08-12T11:59:08;19.13;;;10.88;;
44434;SDS011;30138;20.964;105.830;2023-08-12T12:04:14;20.10;;;11.60;;
44434;SDS011;30138;20.964;105.830;2023-08-12T12:09:21;22.25;;;11.77;;
44434;SDS011;30138;20.964;105.830;2023-08-12T12:14:30;20.38;;;10.48;;
44434;SDS011;30138;20.964;105.830;2023-08-12T12:19:40;18.90;;;11.00;;
44434;SDS011;30138;20.964;105.830;2023-08-12T12:24:48;16.05;;;10.38;;
44434;SDS011;30138;20.964;105.830;2023-08-12T12:29:57;16.35;;;10.55;;
44434;SDS011;30138;20.964;105.830;2023-08-12T12:35:05;20.13;;;10.95;;
44434;SDS011;30138;20.964;105.830;2023-08-12T12:40:11;18.38;;;10.27;;
44434;SDS011;30138;20.964;105.830;2023-08-12T12:45:20;18.35;;;9.52;;
44434;SDS011;30138;20.964;105.830;2023-08-12T12:50:27;17.27;;;9.45;;
44434;SDS011;30138;20.964;105.830;2023-08-12T12:55:33;17.48;;;9.23;;
44434;SDS011;30138;20.964;105.830;2023-08-12T13:00:42;18.85;;;9.70;;
44434;SDS011;30138;20.964;105.830;2023-08-12T13:05:49;22.58;;;10.05;;
44434;SDS011;30138;20.964;105.830;2023-08-12T13:10:56;22.25;;;10.57;;
44434;SDS011;30138;20.964;105.830;2023-08-12T13:16:04;22.55;;;10.07;;
44434;SDS011;30138;20.964;105.830;2023-08-12T13:21:11;17.90;;;10.07;;
44434;SDS011;30138;20.964;105.830;2023-08-12T13:26:22;22.83;;;9.85;;
44434;SDS011;30138;20.964;105.830;2023-08-12T13:31:31;17.92;;;10.05;;
44434;SDS011;30138;20.964;105.830;2023-08-12T13:36:39;20.70;;;9.93;;
44434;SDS011;30138;20.964;105.830;2023-08-12T13:41:45;20.70;;;10.18;;
44434;SDS011;30138;20.964;105.830;2023-08-12T13:46:54;17.70;;;9.52;;
44434;SDS011;30138;20.964;105.830;2023-08-12T13:52:01;16.88;;;9.65;;
44434;SDS011;30138;20.964;105.830;2023-08-12T13:57:08;19.05;;;10.38;;
44434;SDS011;30138;20.964;105.830;2023-08-12T14:02:20;19.70;;;10.38;;
44434;SDS011;30138;20.964;105.830;2023-08-12T14:07:27;24.48;;;12.40;;
44434;SDS011;30138;20.964;105.830;2023-08-12T14:12:34;21.77;;;11.63;;
44434;SDS011;30138;20.964;105.830;2023-08-12T14:17:42;27.05;;;13.45;;
44434;SDS011;30138;20.964;105.830;2023-08-12T14:22:49;30.88;;;13.68;;
44434;SDS011;30138;20.964;105.830;2023-08-12T14:27:56;27.05;;;15.75;;
44434;SDS011;30138;20.964;105.830;2023-08-12T14:33:04;26.92;;;16.45;;
44434;SDS011;30138;20.964;105.830;2023-08-12T14:38:11;29.73;;;17.67;;
44434;SDS011;30138;20.964;105.830;2023-08-12T14:43:23;31.08;;;17.30;;
44434;SDS011;30138;20.964;105.830;2023-08-12T14:53:37;27.67;;;14.80;;
44434;SDS011;30138;20.964;105.830;2023-08-12T14:58:43;24.40;;;14.52;;
44434;SDS011;30138;20.964;105.830;2023-08-12T15:04:04;21.08;;;12.68;;
44434;SDS011;30138;20.964;105.830;2023-08-12T15:09:13;28.25;;;12.50;;
44434;SDS011;30138;20.964;105.830;2023-08-12T15:14:19;26.13;;;12.88;;
44434;SDS011;30138;20.964;105.830;2023-08-12T15:19:28;24.50;;;12.50;;
44434;SDS011;30138;20.964;105.830;2023-08-12T15:24:35;24.23;;;12.05;;
44434;SDS011;30138;20.964;105.830;2023-08-12T15:29:42;18.77;;;11.70;;
44434;SDS011;30138;20.964;105.830;2023-08-12T15:34:50;23.40;;;11.93;;
44434;SDS011;30138;20.964;105.830;2023-08-12T15:39:56;22.08;;;11.20;;
44434;SDS011;30138;20.964;105.830;2023-08-12T15:45:02;21.02;;;10.50;;
44434;SDS011;30138;20.964;105.830;2023-08-12T15:50:26;22.45;;;10.98;;
44434;SDS011;30138;20.964;105.830;2023-08-12T15:56:10;24.13;;;12.23;;
44434;SDS011;30138;20.964;105.830;2023-08-12T16:01:17;21.70;;;12.48;;
44434;SDS011;30138;20.964;105.830;2023-08-12T16:06:26;26.30;;;14.68;;
44434;SDS011;30138;20.964;105.830;2023-08-12T16:11:32;29.42;;;15.27;;
44434;SDS011;30138;20.964;105.830;2023-08-12T16:16:38;29.35;;;15.73;;
44434;SDS011;30138;20.964;105.830;2023-08-12T16:21:46;39.22;;;18.63;;
44434;SDS011;30138;20.964;105.830;2023-08-12T16:26:53;26.95;;;15.43;;
44434;SDS011;30138;20.964;105.830;2023-08-12T16:32:01;28.75;;;16.10;;
44434;SDS011;30138;20.964;105.830;2023-08-12T16:37:10;27.90;;;15.55;;
44434;SDS011;30138;20.964;105.830;2023-08-12T16:42:16;35.45;;;17.88;;
44434;SDS011;30138;20.964;105.830;2023-08-12T16:47:22;30.63;;;16.95;;
44434;SDS011;30138;20.964;105.830;2023-08-12T16:52:30;37.05;;;21.63;;
44434;SDS011;30138;20.964;105.830;2023-08-12T16:57:36;59.97;;;33.15;;
44434;SDS011;30138;20.964;105.830;2023-08-12T17:02:43;56.65;;;29.30;;
44434;SDS011;30138;20.964;105.830;2023-08-12T17:07:53;47.42;;;25.30;;
44434;SDS011;30138;20.964;105.830;2023-08-12T17:13:12;53.13;;;27.98;;
44434;SDS011;30138;20.964;105.830;2023-08-12T17:19:00;57.90;;;31.00;;
44434;SDS011;30138;20.964;105.830;2023-08-12T17:24:08;72.82;;;36.92;;
44434;SDS011;30138;20.964;105.830;2023-08-12T17:29:15;64.78;;;31.42;;
44434;SDS011;30138;20.964;105.830;2023-08-12T17:34:21;40.80;;;22.45;;
44434;SDS011;30138;20.964;105.830;2023-08-12T17:39:30;46.05;;;22.13;;
44434;SDS011;30138;20.964;105.830;2023-08-12T17:44:36;40.92;;;19.08;;
44434;SDS011;30138;20.964;105.830;2023-08-12T17:49:43;36.63;;;16.65;;
44434;SDS011;30138;20.964;105.830;2023-08-12T17:54:51;23.92;;;14.70;;
44434;SDS011;30138;20.964;105.830;2023-08-12T17:59:57;26.83;;;14.07;;
44434;SDS011;30138;20.964;105.830;2023-08-12T18:05:15;29.92;;;14.02;;
44434;SDS011;30138;20.964;105.830;2023-08-12T18:10:27;26.10;;;13.13;;
44434;SDS011;30138;20.964;105.830;2023-08-12T18:15:33;22.98;;;13.40;;
44434;SDS011;30138;20.964;105.830;2023-08-12T18:20:39;20.90;;;12.43;;
44434;SDS011;30138;20.964;105.830;2023-08-12T18:25:48;26.92;;;13.93;;
44434;SDS011;30138;20.964;105.830;2023-08-12T18:30:55;21.30;;;13.13;;
44434;SDS011;30138;20.964;105.830;2023-08-12T18:36:10;22.13;;;12.30;;
44434;SDS011;30138;20.964;105.830;2023-08-12T18:41:17;24.73;;;12.98;;
44434;SDS011;30138;20.964;105.830;2023-08-12T18:46:24;21.98;;;12.98;;
44434;SDS011;30138;20.964;105.830;2023-08-12T18:51:49;25.15;;;12.82;;
44434;SDS011;30138;20.964;105.830;2023-08-12T18:56:57;28.73;;;13.30;;
44434;SDS011;30138;20.964;105.830;2023-08-12T19:02:03;25.08;;;12.13;;
44434;SDS011;30138;20.964;105.830;2023-08-12T19:07:29;21.60;;;11.45;;
44434;SDS011;30138;20.964;105.830;2023-08-12T19:12:42;18.27;;;10.85;;
44434;SDS011;30138;20.964;105.830;2023-08-12T19:17:54;19.02;;;11.30;;
44434;SDS011;30138;20.964;105.830;2023-08-12T19:23:00;24.00;;;10.75;;
44434;SDS011;30138;20.964;105.830;2023-08-12T19:28:08;20.98;;;11.00;;
44434;SDS011;30138;20.964;105.830;2023-08-12T19:33:23;20.73;;;11.38;;
44434;SDS011;30138;20.964;105.830;2023-08-12T19:38:30;17.95;;;10.63;;
44434;SDS011;30138;20.964;105.830;2023-08-12T19:43:38;18.73;;;11.07;;
44434;SDS011;30138;20.964;105.830;2023-08-12T19:48:44;21.08;;;10.82;;
44434;SDS011;30138;20.964;105.830;2023-08-12T19:53:50;23.52;;;10.80;;
44434;SDS011;30138;20.964;105.830;2023-08-12T19:58:59;22.38;;;10.77;;
44434;SDS011;30138;20.964;105.830;2023-08-12T20:04:06;20.30;;;11.65;;
44434;SDS011;30138;20.964;105.830;2023-08-12T20:09:12;20.45;;;11.75;;
44434;SDS011;30138;20.964;105.830;2023-08-12T20:14:21;19.52;;;12.23;;
44434;SDS011;30138;20.964;105.830;2023-08-12T20:19:28;18.50;;;12.25;;
44434;SDS011;30138;20.964;105.830;2023-08-12T20:24:40;22.80;;;11.73;;
44434;SDS011;30138;20.964;105.830;2023-08-12T20:29:51;20.05;;;12.00;;
44434;SDS011;30138;20.964;105.830;2023-08-12T20:34:57;21.95;;;12.73;;
44434;SDS011;30138;20.964;105.830;2023-08-12T20:40:04;26.42;;;13.23;;
44434;SDS011;30138;20.964;105.830;2023-08-12T20:45:13;21.92;;;13.40;;
44434;SDS011;30138;20.964;105.830;2023-08-12T20:50:20;22.88;;;13.45;;
44434;SDS011;30138;20.964;105.830;2023-08-12T20:55:27;28.30;;;15.07;;
44434;SDS011;30138;20.964;105.830;2023-08-12T21:00:34;23.48;;;14.45;;
44434;SDS011;30138;20.964;105.830;2023-08-12T21:05:41;27.52;;;15.60;;
44434;SDS011;30138;20.964;105.830;2023-08-12T21:10:53;27.65;;;14.90;;
44434;SDS011;30138;20.964;105.830;2023-08-12T21:16:00;28.52;;;16.63;;
44434;SDS011;30138;20.964;105.830;2023-08-12T21:21:07;29.58;;;15.82;;
44434;SDS011;30138;20.964;105.830;2023-08-12T21:26:15;26.50;;;16.45;;
44434;SDS011;30138;20.964;105.830;2023-08-12T21:31:23;32.38;;;18.08;;
44434;SDS011;30138;20.964;105.830;2023-08-12T21:36:29;27.45;;;18.67;;
44434;SDS011;30138;20.964;105.830;2023-08-12T21:41:35;29.80;;;18.73;;
44434;SDS011;30138;20.964;105.830;2023-08-12T21:46:42;32.30;;;19.58;;
44434;SDS011;30138;20.964;105.830;2023-08-12T21:51:49;39.33;;;22.80;;
44434;SDS011;30138;20.964;105.830;2023-08-12T21:56:55;40.20;;;23.75;;
44434;SDS011;30138;20.964;105.830;2023-08-12T22:02:03;42.80;;;25.58;;
44434;SDS011;30138;20.964;105.830;2023-08-12T22:07:09;48.28;;;29.98;;
44434;SDS011;30138;20.964;105.830;2023-08-12T22:12:22;45.38;;;26.88;;
44434;SDS011;30138;20.964;105.830;2023-08-12T22:17:30;46.47;;;28.52;;
44434;SDS011;30138;20.964;105.830;2023-08-12T22:22:37;49.47;;;29.33;;
44434;SDS011;30138;20.964;105.830;2023-08-12T22:27:43;52.85;;;32.10;;
44434;SDS011;30138;20.964;105.830;2023-08-12T22:32:52;50.28;;;30.05;;
44434;SDS011;30138;20.964;105.830;2023-08-12T22:37:59;51.22;;;31.73;;
44434;SDS011;30138;20.964;105.830;2023-08-12T22:43:05;58.08;;;31.77;;
44434;SDS011;30138;20.964;105.830;2023-08-12T22:48:13;54.70;;;32.45;;
44434;SDS011;30138;20.964;105.830;2023-08-12T22:53:22;59.17;;;34.60;;
44434;SDS011;30138;20.964;105.830;2023-08-12T22:58:28;51.38;;;32.72;;
44434;SDS011;30138;20.964;105.830;2023-08-12T23:03:35;55.90;;;34.38;;
44434;SDS011;30138;20.964;105.830;2023-08-12T23:08:42;63.58;;;36.65;;
44434;SDS011;30138;20.964;105.830;2023-08-12T23:13:48;60.08;;;36.53;;
44434;SDS011;30138;20.964;105.830;2023-08-12T23:18:57;70.75;;;40.58;;
44434;SDS011;30138;20.964;105.830;2023-08-12T23:24:03;69.18;;;40.58;;
44434;SDS011;30138;20.964;105.830;2023-08-12T23:29:10;69.95;;;38.75;;
44434;SDS011;30138;20.964;105.830;2023-08-12T23:34:17;73.05;;;42.45;;
44434;SDS011;30138;20.964;105.830;2023-08-12T23:39:24;66.90;;;40.85;;
44434;SDS011;30138;20.964;105.830;2023-08-12T23:44:31;72.30;;;43.90;;
44434;SDS011;30138;20.964;105.830;2023-08-12T23:49:40;74.75;;;44.55;;
44434;SDS011;30138;20.964;105.830;2023-08-12T23:54:46;71.43;;;43.78;;
44434;SDS011;30138;20.964;105.830;2023-08-12T23:59:52;71.60;;;45.22;;
